createdAt,value
2022-08-05T00:00:07.648Z,1007.57
2022-08-05T00:01:20.612Z,1007.51
2022-08-05T00:02:11.406Z,1007.51
2022-08-05T00:03:07.794Z,1007.49
2022-08-05T00:04:08.228Z,1007.46
2022-08-05T00:05:07.807Z,1007.49
2022-08-05T00:06:27.835Z,1007.47
2022-08-05T00:07:27.274Z,1007.49
2022-08-05T00:08:19.869Z,1007.46
2022-08-05T00:09:12.828Z,1007.47
2022-08-05T00:10:07.955Z,1007.43
2022-08-05T00:11:27.998Z,1007.44
2022-08-05T00:12:08.017Z,1007.44
2022-08-05T00:13:08.051Z,1007.39
2022-08-05T00:14:12.025Z,1007.40
2022-08-05T00:15:56.201Z,1007.41
2022-08-05T00:17:18.898Z,1007.45
2022-08-05T00:18:08.219Z,1007.49
2022-08-05T00:19:08.235Z,1007.47
2022-08-05T00:20:08.266Z,1007.48
2022-08-05T00:21:08.616Z,1007.50
2022-08-05T00:22:11.268Z,1007.51
2022-08-05T00:23:12.635Z,1007.46
2022-08-05T00:24:11.123Z,1007.47
2022-08-05T00:25:08.451Z,1007.45
2022-08-05T00:26:08.448Z,1007.44
2022-08-05T00:27:10.559Z,1007.40
2022-08-05T00:28:08.511Z,1007.35
2022-08-05T00:29:08.541Z,1007.29
2022-08-05T00:30:11.361Z,1007.26
2022-08-05T00:31:08.602Z,1007.26
2022-08-05T00:32:13.553Z,1007.28
2022-08-05T00:33:15.454Z,1007.25
2022-08-05T00:34:56.994Z,1007.24
2022-08-05T00:35:08.725Z,1007.24
2022-08-05T00:36:16.581Z,1007.22
2022-08-05T00:37:13.560Z,1007.20
2022-08-05T00:38:09.450Z,1007.18
2022-08-05T00:39:13.772Z,1007.21
2022-08-05T00:40:09.494Z,1007.19
2022-08-05T00:41:11.775Z,1007.14
2022-08-05T00:42:08.943Z,1007.17
2022-08-05T00:43:08.973Z,1007.15
2022-08-05T00:44:09.004Z,1007.20
2022-08-05T00:45:11.668Z,1007.19
2022-08-05T00:46:09.066Z,1007.17
2022-08-05T00:47:09.095Z,1007.22
2022-08-05T00:48:09.522Z,1007.15
2022-08-05T00:49:09.156Z,1007.20
2022-08-05T00:50:09.189Z,1007.17
2022-08-05T00:51:51.553Z,1007.19
2022-08-05T00:52:09.250Z,1007.17
2022-08-05T00:53:09.734Z,1007.19
2022-08-05T00:54:09.313Z,1007.18
2022-08-05T00:55:09.342Z,1007.21
2022-08-05T00:56:09.373Z,1007.26
2022-08-05T00:57:09.403Z,1007.24
2022-08-05T00:58:11.091Z,1007.31
2022-08-05T00:59:09.475Z,1007.33
2022-08-05T01:00:11.161Z,1007.33
2022-08-05T01:01:09.748Z,1007.34
2022-08-05T01:02:09.557Z,1007.33
2022-08-05T01:03:09.587Z,1007.37
2022-08-05T01:04:14.258Z,1007.39
2022-08-05T01:05:10.103Z,1007.42
2022-08-05T01:06:14.046Z,1007.39
2022-08-05T01:07:13.772Z,1007.41
2022-08-05T01:08:42.059Z,1007.39
2022-08-05T01:10:09.801Z,1007.40
2022-08-05T01:11:09.833Z,1007.33
2022-08-05T01:12:18.573Z,1007.34
2022-08-05T01:13:13.215Z,1007.36
2022-08-05T01:14:09.921Z,1007.39
2022-08-05T01:15:35.326Z,1007.40
2022-08-05T01:16:09.984Z,1007.46
2022-08-05T01:17:23.070Z,1007.51
2022-08-05T01:18:10.044Z,1007.54
2022-08-05T01:19:10.075Z,1007.54
2022-08-05T01:21:12.704Z,1007.45
2022-08-05T01:22:15.502Z,1007.45
2022-08-05T01:23:15.353Z,1007.56
2022-08-05T01:24:13.226Z,1007.53
2022-08-05T01:25:13.655Z,1007.51
2022-08-05T01:26:12.863Z,1007.56
2022-08-05T01:27:17.673Z,1007.51
2022-08-05T01:28:12.940Z,1007.52
2022-08-05T01:29:12.947Z,1007.57
2022-08-05T01:30:17.870Z,1007.56
2022-08-05T01:31:13.007Z,1007.58
2022-08-05T01:32:18.638Z,1007.59
2022-08-05T01:33:13.070Z,1007.64
2022-08-05T01:34:13.099Z,1007.58
2022-08-05T01:35:13.128Z,1007.54
2022-08-05T01:36:16.079Z,1007.55
2022-08-05T01:37:24.445Z,1007.55
2022-08-05T01:38:24.687Z,1007.50
2022-08-05T01:39:13.370Z,1007.53
2022-08-05T01:40:13.284Z,1007.56
2022-08-05T01:41:13.325Z,1007.54
2022-08-05T01:42:13.689Z,1007.61
2022-08-05T01:43:22.441Z,1007.60
2022-08-05T01:44:13.407Z,1007.56
2022-08-05T01:45:13.437Z,1007.63
2022-08-05T01:46:16.646Z,1007.57
2022-08-05T01:51:22.705Z,1007.63
2022-08-05T01:52:22.735Z,1007.69
2022-08-05T01:53:54.528Z,1007.67
2022-08-05T01:54:25.700Z,1007.62
2022-08-05T01:55:22.827Z,1007.64
2022-08-05T01:58:11.868Z,1007.65
2022-08-05T01:58:14.965Z,1007.65
2022-08-05T01:58:40.673Z,1007.64
2022-08-05T01:59:22.958Z,1007.66
2022-08-05T02:00:30.721Z,1007.64
2022-08-05T02:01:24.655Z,1007.63
2022-08-05T02:02:28.439Z,1007.62
2022-08-05T02:03:29.273Z,1007.61
2022-08-05T02:04:23.101Z,1007.56
2022-08-05T02:05:23.499Z,1007.58
2022-08-05T02:06:33.772Z,1007.63
2022-08-05T02:07:23.424Z,1007.71
2022-08-05T02:08:31.050Z,1007.80
2022-08-05T02:09:23.254Z,1007.91
2022-08-05T02:10:28.414Z,1007.96
2022-08-05T02:11:23.964Z,1008.02
2022-08-05T02:12:23.347Z,1007.98
2022-08-05T02:13:23.376Z,1007.96
2022-08-05T02:14:23.408Z,1007.95
2022-08-05T02:15:23.435Z,1007.93
2022-08-05T02:16:23.468Z,1007.96
2022-08-05T02:18:28.784Z,1008.00
2022-08-05T02:18:30.352Z,1008.06
2022-08-05T02:19:23.557Z,1008.08
2022-08-05T02:20:23.590Z,1008.19
2022-08-05T02:21:23.619Z,1008.24
2022-08-05T02:22:26.545Z,1008.38
2022-08-05T02:23:23.731Z,1008.43
2022-08-05T02:24:23.719Z,1008.42
2022-08-05T02:25:23.743Z,1008.46
2022-08-05T02:26:23.772Z,1008.50
2022-08-05T02:27:30.162Z,1008.55
2022-08-05T02:28:28.852Z,1008.55
2022-08-05T02:29:24.246Z,1008.58
2022-08-05T02:30:23.897Z,1008.68
2022-08-05T02:31:23.923Z,1008.77
2022-08-05T02:32:30.879Z,1008.87
2022-08-05T02:33:24.395Z,1008.88
2022-08-05T02:34:24.016Z,1008.97
2022-08-05T02:35:28.120Z,1009.08
2022-08-05T02:36:24.076Z,1009.12
2022-08-05T02:37:24.915Z,1009.17
2022-08-05T02:38:25.466Z,1009.18
2022-08-05T02:39:24.263Z,1009.20
2022-08-05T02:40:24.346Z,1009.24
2022-08-05T02:41:28.753Z,1009.29
2022-08-05T02:42:27.641Z,1009.32
2022-08-05T02:43:24.293Z,1009.32
2022-08-05T02:44:24.320Z,1009.31
2022-08-05T02:45:25.214Z,1009.30
2022-08-05T02:46:27.527Z,1009.29
2022-08-05T02:47:24.726Z,1009.25
2022-08-05T02:48:29.488Z,1009.25
2022-08-05T02:49:24.684Z,1009.23
2022-08-05T02:51:07.054Z,1009.28
2022-08-05T02:52:07.697Z,1009.27
2022-08-05T02:53:07.122Z,1009.22
2022-08-05T02:54:07.244Z,1009.08
2022-08-05T02:55:10.896Z,1008.93
2022-08-05T02:56:07.220Z,1008.87
2022-08-05T02:59:47.728Z,1008.70
2022-08-05T03:00:33.149Z,1008.62
2022-08-05T03:01:33.305Z,1008.51
2022-08-05T03:02:33.208Z,1008.40
2022-08-05T03:03:33.697Z,1008.35
2022-08-05T03:06:54.728Z,1008.54
2022-08-05T03:06:55.813Z,1008.63
2022-08-05T03:08:00.583Z,1008.65
2022-08-05T03:08:33.396Z,1008.66
2022-08-05T03:10:33.442Z,1008.58
2022-08-05T03:11:56.655Z,1008.57
2022-08-05T03:12:33.503Z,1008.55
2022-08-05T03:13:51.838Z,1008.50
2022-08-05T03:14:33.560Z,1008.59
2022-08-05T03:15:33.854Z,1008.57
2022-08-05T03:16:33.617Z,1008.61
2022-08-05T03:17:33.648Z,1008.56
2022-08-05T03:18:33.684Z,1008.61
2022-08-05T03:19:36.034Z,1008.66
2022-08-05T03:20:33.734Z,1008.72
2022-08-05T03:21:41.723Z,1008.75
2022-08-05T03:22:33.839Z,1008.79
2022-08-05T03:23:33.826Z,1008.83
2022-08-05T03:24:33.854Z,1008.89
2022-08-05T03:26:04.432Z,1008.88
2022-08-05T03:26:33.913Z,1008.87
2022-08-05T03:27:57.925Z,1008.86
2022-08-05T03:28:33.972Z,1008.90
2022-08-05T03:29:44.431Z,1008.93
2022-08-05T03:30:34.572Z,1008.97
2022-08-05T03:31:57.122Z,1009.01
2022-08-05T03:32:34.095Z,1009.08
2022-08-05T03:33:51.473Z,1009.04
2022-08-05T03:34:34.151Z,1009.00
2022-08-05T03:35:41.111Z,1009.01
2022-08-05T03:36:34.211Z,1009.02
2022-08-05T03:37:45.734Z,1008.95
2022-08-05T03:38:37.507Z,1008.93
2022-08-05T03:39:47.192Z,1009.00
2022-08-05T03:40:34.449Z,1009.02
2022-08-05T03:41:38.816Z,1009.08
2022-08-05T03:42:41.765Z,1009.10
2022-08-05T03:44:08.461Z,1009.07
2022-08-05T03:44:34.449Z,1009.12
2022-08-05T03:45:57.164Z,1009.13
2022-08-05T03:46:34.510Z,1009.12
2022-08-05T03:47:35.493Z,1009.11
2022-08-05T03:48:35.318Z,1009.06
2022-08-05T03:49:51.536Z,1009.04
2022-08-05T03:50:38.270Z,1008.96
2022-08-05T03:52:37.667Z,1008.90
2022-08-05T03:53:12.131Z,1008.88
2022-08-05T03:55:50.744Z,1008.85
2022-08-05T03:55:53.869Z,1008.83
2022-08-05T03:56:09.453Z,1008.81
2022-08-05T04:00:37.468Z,1008.73
2022-08-05T04:02:38.289Z,1008.77
2022-08-05T04:03:35.947Z,1008.82
2022-08-05T04:29:35.789Z,1008.03
2022-08-05T04:30:35.818Z,1007.91
2022-08-05T04:31:38.812Z,1007.83
2022-08-05T04:32:35.881Z,1007.78
2022-08-05T04:34:17.871Z,1007.72
2022-08-05T04:34:38.514Z,1007.63
2022-08-05T04:36:15.558Z,1007.55
2022-08-05T04:36:44.930Z,1007.50
2022-08-05T04:38:02.636Z,1007.45
2022-08-05T04:38:39.637Z,1007.49
2022-08-05T04:39:36.360Z,1007.47
2022-08-05T04:43:36.215Z,1007.93
2022-08-05T04:44:36.238Z,1007.94
2022-08-05T04:45:48.165Z,1007.80
2022-08-05T04:46:36.703Z,1007.76
2022-08-05T04:47:38.590Z,1007.77
2022-08-05T04:48:36.353Z,1007.91
2022-08-05T04:49:38.427Z,1008.08
2022-08-05T04:50:37.517Z,1008.22
2022-08-05T04:51:36.657Z,1008.30
2022-08-05T04:52:36.690Z,1008.27
2022-08-05T04:54:36.532Z,1008.32
2022-08-05T04:56:11.865Z,1008.33
2022-08-05T04:56:36.988Z,1008.36
2022-08-05T04:57:37.253Z,1008.48
2022-08-05T04:58:36.862Z,1008.49
2022-08-05T04:59:38.952Z,1008.48
2022-08-05T05:00:36.728Z,1008.55
2022-08-05T05:02:07.230Z,1008.55
2022-08-05T05:02:41.821Z,1008.62
2022-08-05T05:03:41.842Z,1008.61
2022-08-05T05:04:38.198Z,1008.63
2022-08-05T05:06:35.949Z,1008.70
2022-08-05T05:06:44.768Z,1008.66
2022-08-05T05:07:37.439Z,1008.65
2022-08-05T05:08:36.965Z,1008.63
2022-08-05T05:09:37.315Z,1008.67
2022-08-05T05:10:37.021Z,1008.64
2022-08-05T05:11:52.863Z,1008.70
2022-08-05T05:12:37.085Z,1008.73
2022-08-05T05:13:43.247Z,1008.79
2022-08-05T05:14:37.147Z,1008.78
2022-08-05T05:15:57.909Z,1008.73
2022-08-05T05:18:37.267Z,1008.87
2022-08-05T05:19:44.214Z,1008.92
2022-08-05T05:21:37.359Z,1008.85
2022-08-05T05:22:40.726Z,1008.80
2022-08-05T05:23:39.431Z,1008.80
2022-08-05T05:24:57.277Z,1008.74
2022-08-05T05:25:40.920Z,1008.71
2022-08-05T05:26:37.796Z,1008.66
2022-08-05T05:27:45.819Z,1008.59
2022-08-05T05:30:37.625Z,1008.53
2022-08-05T05:33:17.659Z,1008.51
2022-08-05T05:34:26.652Z,1008.55
2022-08-05T05:35:19.862Z,1008.54
2022-08-05T05:36:17.568Z,1008.57
2022-08-05T05:39:19.112Z,1008.61
2022-08-05T05:40:17.783Z,1008.63
2022-08-05T05:41:17.554Z,1008.60
2022-08-05T05:42:17.747Z,1008.58
2022-08-05T05:43:22.270Z,1008.57
2022-08-05T05:44:36.541Z,1008.58
2022-08-05T05:45:17.729Z,1008.66
2022-08-05T05:47:21.483Z,1008.71
2022-08-05T05:48:17.616Z,1008.68
2022-08-05T05:49:22.417Z,1008.71
2022-08-05T05:51:17.709Z,1008.72
2022-08-05T05:53:21.453Z,1008.74
2022-08-05T05:54:17.785Z,1008.79
2022-08-05T05:55:18.238Z,1008.78
2022-08-05T05:56:31.405Z,1008.78
2022-08-05T05:58:17.919Z,1008.75
2022-08-05T06:00:17.965Z,1008.88
2022-08-05T06:01:17.997Z,1008.89
2022-08-05T06:02:32.632Z,1008.91
2022-08-05T06:03:53.610Z,1008.92
2022-08-05T06:04:18.588Z,1008.90
2022-08-05T06:06:18.564Z,1008.87
2022-08-05T06:07:22.522Z,1008.92
2022-08-05T06:08:32.378Z,1008.96
2022-08-05T06:09:26.672Z,1008.93
2022-08-05T06:10:18.276Z,1008.94
2022-08-05T06:11:18.297Z,1008.97
2022-08-05T06:12:18.329Z,1008.98
2022-08-05T06:14:07.199Z,1008.90
2022-08-05T06:15:08.207Z,1008.91
2022-08-05T06:16:29.348Z,1008.90
2022-08-05T06:17:22.237Z,1008.90
2022-08-05T06:18:06.703Z,1008.93
2022-08-05T06:19:07.084Z,1008.94
2022-08-05T06:20:06.771Z,1008.97
2022-08-05T06:21:08.031Z,1009.03
2022-08-05T06:22:06.877Z,1009.07
2022-08-05T06:23:06.868Z,1009.07
2022-08-05T06:24:07.675Z,1009.13
2022-08-05T06:25:25.179Z,1009.10
2022-08-05T06:26:21.668Z,1009.09
2022-08-05T06:27:07.671Z,1009.10
2022-08-05T06:28:11.918Z,1009.09
2022-08-05T06:29:25.286Z,1009.11
2022-08-05T06:30:19.864Z,1009.09
2022-08-05T06:31:11.131Z,1009.13
2022-08-05T06:32:20.841Z,1009.12
2022-08-05T06:33:10.896Z,1009.13
2022-08-05T06:34:08.933Z,1009.21
2022-08-05T06:35:15.459Z,1009.19
2022-08-05T06:36:09.802Z,1009.19
2022-08-05T06:37:07.272Z,1009.20
2022-08-05T06:38:10.139Z,1009.13
2022-08-05T06:39:07.593Z,1009.17
2022-08-05T06:40:07.370Z,1009.19
2022-08-05T06:41:07.872Z,1009.18
2022-08-05T06:42:07.420Z,1009.23
2022-08-05T06:43:07.451Z,1009.27
2022-08-05T06:44:07.489Z,1009.28
2022-08-05T06:45:08.895Z,1009.26
2022-08-05T06:46:07.625Z,1009.27
2022-08-05T06:47:10.378Z,1009.19
2022-08-05T06:48:36.440Z,1009.16
2022-08-05T06:49:08.365Z,1009.17
2022-08-05T06:50:07.718Z,1009.09
2022-08-05T06:51:09.638Z,1009.07
2022-08-05T06:52:07.824Z,1009.07
2022-08-05T06:53:19.534Z,1009.09
2022-08-05T06:54:08.000Z,1009.11
2022-08-05T06:55:07.818Z,1009.16
2022-08-05T06:56:16.252Z,1009.17
2022-08-05T06:57:56.725Z,1009.16
2022-08-05T06:58:20.098Z,1009.18
2022-08-05T06:59:09.338Z,1009.21
2022-08-05T07:00:09.635Z,1009.28
2022-08-05T07:01:08.063Z,1009.27
2022-08-05T07:02:08.025Z,1009.30
2022-08-05T07:03:09.729Z,1009.35
2022-08-05T07:04:08.087Z,1009.37
2022-08-05T07:05:14.133Z,1009.39
2022-08-05T07:06:14.260Z,1009.37
2022-08-05T07:07:08.254Z,1009.38
2022-08-05T07:08:10.641Z,1009.37
2022-08-05T07:09:08.240Z,1009.34
2022-08-05T07:10:08.273Z,1009.29
2022-08-05T07:11:08.300Z,1009.32
2022-08-05T07:12:08.327Z,1009.36
2022-08-05T07:13:08.359Z,1009.40
2022-08-05T07:14:08.389Z,1009.44
2022-08-05T07:15:08.829Z,1009.45
2022-08-05T07:16:08.445Z,1009.47
2022-08-05T07:18:02.048Z,1009.50
2022-08-05T07:18:10.814Z,1009.51
2022-08-05T07:19:08.540Z,1009.53
2022-08-05T07:20:32.521Z,1009.52
2022-08-05T07:21:08.599Z,1009.59
2022-08-05T07:22:08.730Z,1009.60
2022-08-05T07:23:08.662Z,1009.67
2022-08-05T07:24:11.278Z,1009.67
2022-08-05T07:25:24.011Z,1009.67
2022-08-05T07:26:08.753Z,1009.68
2022-08-05T07:27:08.986Z,1009.71
2022-08-05T07:28:11.764Z,1009.68
2022-08-05T07:29:08.843Z,1009.72
2022-08-05T07:30:22.885Z,1009.71
2022-08-05T07:31:08.903Z,1009.68
2022-08-05T07:32:08.983Z,1009.70
2022-08-05T07:33:10.400Z,1009.64
2022-08-05T07:34:08.993Z,1009.62
2022-08-05T07:36:03.458Z,1009.67
2022-08-05T07:36:20.642Z,1009.68
2022-08-05T07:37:09.091Z,1009.71
2022-08-05T07:38:12.248Z,1009.75
2022-08-05T07:39:09.201Z,1009.72
2022-08-05T07:40:31.886Z,1009.73
2022-08-05T07:42:06.738Z,1009.78
2022-08-05T07:42:14.987Z,1009.79
2022-08-05T07:43:14.605Z,1009.80
2022-08-05T07:44:14.282Z,1009.80
2022-08-05T07:45:09.519Z,1009.79
2022-08-05T07:46:24.867Z,1009.79
2022-08-05T07:47:10.164Z,1009.88
2022-08-05T07:48:09.417Z,1009.87
2022-08-05T07:49:09.450Z,1009.87
2022-08-05T07:50:09.480Z,1009.83
2022-08-05T07:51:23.805Z,1009.85
2022-08-05T07:52:09.559Z,1009.81
2022-08-05T07:53:09.590Z,1009.84
2022-08-05T07:54:10.402Z,1009.86
2022-08-05T07:55:16.030Z,1009.86
2022-08-05T07:57:02.821Z,1009.89
2022-08-05T07:57:16.968Z,1009.87
2022-08-05T07:58:10.326Z,1009.91
2022-08-05T07:59:09.757Z,1009.92
2022-08-05T08:00:11.329Z,1009.96
2022-08-05T08:01:12.172Z,1009.96
2022-08-05T08:02:15.325Z,1009.96
2022-08-05T08:03:13.960Z,1009.93
2022-08-05T08:04:09.902Z,1010.01
2022-08-05T08:05:09.933Z,1010.03
2022-08-05T08:06:10.183Z,1010.01
2022-08-05T08:07:09.997Z,1010.03
2022-08-05T08:08:12.256Z,1010.02
2022-08-05T08:09:10.057Z,1010.06
2022-08-05T08:10:10.085Z,1010.11
2022-08-05T08:11:10.117Z,1010.17
2022-08-05T08:12:29.687Z,1010.18
2022-08-05T08:13:11.567Z,1010.19
2022-08-05T08:14:10.206Z,1010.15
2022-08-05T08:15:15.115Z,1010.15
2022-08-05T08:16:34.607Z,1010.17
2022-08-05T08:17:10.298Z,1010.24
2022-08-05T08:18:14.309Z,1010.28
2022-08-05T08:20:21.143Z,1010.29
2022-08-05T08:20:44.442Z,1010.31
2022-08-05T08:21:15.797Z,1010.31
2022-08-05T08:22:10.449Z,1010.36
2022-08-05T08:24:00.176Z,1010.37
2022-08-05T08:24:13.768Z,1010.38
2022-08-05T08:25:16.315Z,1010.35
2022-08-05T08:26:10.568Z,1010.38
2022-08-05T08:27:10.601Z,1010.35
2022-08-05T08:28:18.240Z,1010.33
2022-08-05T08:30:03.302Z,1010.39
2022-08-05T08:30:27.006Z,1010.35
2022-08-05T08:31:16.417Z,1010.37
2022-08-05T08:32:10.991Z,1010.35
2022-08-05T08:33:13.859Z,1010.39
2022-08-05T08:34:10.813Z,1010.41
2022-08-05T08:35:13.377Z,1010.45
2022-08-05T08:36:38.556Z,1010.48
2022-08-05T08:37:10.901Z,1010.47
2022-08-05T08:38:16.434Z,1010.52
2022-08-05T08:39:15.423Z,1010.51
2022-08-05T08:40:10.996Z,1010.61
2022-08-05T08:41:11.022Z,1010.61
2022-08-05T08:42:32.303Z,1010.63
2022-08-05T08:45:16.448Z,1010.64
2022-08-05T08:45:21.057Z,1010.61
2022-08-05T08:45:23.703Z,1010.65
2022-08-05T08:46:16.205Z,1010.68
2022-08-05T08:47:47.747Z,1010.70
2022-08-05T08:48:22.748Z,1010.71
2022-08-05T08:50:06.011Z,1010.74
2022-08-05T08:50:30.529Z,1010.76
2022-08-05T08:51:54.561Z,1010.76
2022-08-05T08:52:13.800Z,1010.76
2022-08-05T08:53:12.346Z,1010.76
2022-08-05T08:54:11.411Z,1010.81
2022-08-05T08:55:13.426Z,1010.84
2022-08-05T08:56:11.472Z,1010.88
2022-08-05T08:57:13.399Z,1010.86
2022-08-05T08:58:13.241Z,1010.88
2022-08-05T08:59:14.893Z,1010.88
2022-08-05T09:00:11.592Z,1010.97
2022-08-05T09:01:16.321Z,1010.93
2022-08-05T09:02:11.655Z,1010.98
2022-08-05T09:03:11.714Z,1011.01
2022-08-05T09:04:11.909Z,1011.00
2022-08-05T09:05:17.755Z,1011.01
2022-08-05T09:06:15.767Z,1011.00
2022-08-05T09:07:28.256Z,1011.02
2022-08-05T09:08:11.829Z,1011.06
2022-08-05T09:09:11.862Z,1011.03
2022-08-05T09:10:11.904Z,1011.01
2022-08-05T09:11:12.089Z,1011.03
2022-08-05T09:12:20.626Z,1011.08
2022-08-05T09:13:11.980Z,1011.07
2022-08-05T09:14:57.460Z,1011.04
2022-08-05T09:15:12.040Z,1011.08
2022-08-05T09:16:16.742Z,1011.01
2022-08-05T09:17:42.810Z,1011.03
2022-08-05T09:18:13.472Z,1011.04
2022-08-05T09:19:12.160Z,1011.04
2022-08-05T09:20:12.194Z,1011.07
2022-08-05T09:21:20.793Z,1011.06
2022-08-05T09:22:22.656Z,1011.08
2022-08-05T09:23:19.792Z,1011.06
2022-08-05T09:24:12.307Z,1010.98
2022-08-05T09:25:14.041Z,1011.01
2022-08-05T09:26:20.498Z,1010.98
2022-08-05T09:27:12.397Z,1010.97
2022-08-05T09:28:13.047Z,1011.04
2022-08-05T09:29:16.254Z,1011.07
2022-08-05T09:30:16.563Z,1011.00
2022-08-05T09:31:44.023Z,1011.03
2022-08-05T09:32:41.354Z,1011.05
2022-08-05T09:33:15.388Z,1011.02
2022-08-05T09:34:13.088Z,1011.08
2022-08-05T09:35:12.635Z,1011.05
2022-08-05T09:36:16.635Z,1011.03
2022-08-05T09:37:15.272Z,1011.10
2022-08-05T09:38:18.323Z,1011.03
2022-08-05T09:39:16.513Z,1011.01
2022-08-05T09:40:12.911Z,1011.04
2022-08-05T09:41:12.812Z,1011.10
2022-08-05T09:42:17.377Z,1011.08
2022-08-05T09:43:12.873Z,1011.04
2022-08-05T09:44:12.900Z,1011.04
2022-08-05T09:46:04.597Z,1011.07
2022-08-05T09:46:12.960Z,1011.11
2022-08-05T09:47:15.660Z,1011.13
2022-08-05T09:48:13.018Z,1011.12
2022-08-05T09:49:19.035Z,1011.14
2022-08-05T09:50:13.078Z,1011.10
2022-08-05T09:51:14.852Z,1011.17
2022-08-05T09:52:13.137Z,1011.17
2022-08-05T09:53:23.055Z,1011.17
2022-08-05T09:54:13.196Z,1011.23
2022-08-05T09:55:57.128Z,1011.27
2022-08-05T09:56:13.665Z,1011.25
2022-08-05T09:57:23.393Z,1011.24
2022-08-05T09:58:13.316Z,1011.28
2022-08-05T09:59:16.861Z,1011.30
2022-08-05T10:00:13.374Z,1011.28
2022-08-05T10:01:15.683Z,1011.32
2022-08-05T10:02:13.454Z,1011.35
2022-08-05T10:03:13.466Z,1011.30
2022-08-05T10:04:13.567Z,1011.31
2022-08-05T10:05:13.528Z,1011.34
2022-08-05T10:06:15.800Z,1011.39
2022-08-05T10:07:21.040Z,1011.36
2022-08-05T10:08:36.247Z,1011.42
2022-08-05T10:09:27.303Z,1011.38
2022-08-05T10:10:17.868Z,1011.48
2022-08-05T10:11:13.703Z,1011.46
2022-08-05T10:12:31.091Z,1011.48
2022-08-05T10:13:14.643Z,1011.48
2022-08-05T10:14:13.791Z,1011.52
2022-08-05T10:15:13.822Z,1011.59
2022-08-05T10:16:13.850Z,1011.55
2022-08-05T10:17:14.137Z,1011.64
2022-08-05T10:18:13.938Z,1011.60
2022-08-05T10:19:13.952Z,1011.61
2022-08-05T10:20:14.023Z,1011.69
2022-08-05T10:21:16.289Z,1011.71
2022-08-05T10:22:29.413Z,1011.70
2022-08-05T10:23:34.563Z,1011.70
2022-08-05T10:24:15.137Z,1011.66
2022-08-05T10:25:14.436Z,1011.72
2022-08-05T10:26:15.062Z,1011.78
2022-08-05T10:27:14.200Z,1011.80
2022-08-05T10:28:19.251Z,1011.81
2022-08-05T10:29:14.237Z,1011.82
2022-08-05T10:31:21.066Z,1011.80
2022-08-05T10:32:48.911Z,1011.81
2022-08-05T10:33:00.971Z,1011.79
2022-08-05T10:33:14.874Z,1011.84
2022-08-05T10:34:14.390Z,1011.90
2022-08-05T10:35:14.415Z,1011.89
2022-08-05T10:36:14.448Z,1011.98
2022-08-05T10:37:14.477Z,1012.00
2022-08-05T10:38:14.506Z,1011.98
2022-08-05T10:39:24.513Z,1012.05
2022-08-05T10:40:19.465Z,1012.07
2022-08-05T10:41:14.688Z,1012.10
2022-08-05T10:42:14.624Z,1012.16
2022-08-05T10:43:14.652Z,1012.12
2022-08-05T10:44:14.683Z,1012.13
2022-08-05T10:45:24.059Z,1012.18
2022-08-05T10:46:14.745Z,1012.17
2022-08-05T10:47:27.004Z,1012.25
2022-08-05T10:48:30.115Z,1012.20
2022-08-05T10:49:16.794Z,1012.25
2022-08-05T10:50:32.225Z,1012.26
2022-08-05T10:51:22.520Z,1012.26
2022-08-05T10:52:14.920Z,1012.28
2022-08-05T10:53:14.948Z,1012.33
2022-08-05T10:54:23.027Z,1012.32
2022-08-05T10:55:16.005Z,1012.35
2022-08-05T10:56:25.098Z,1012.31
2022-08-05T10:57:15.068Z,1012.37
2022-08-05T10:58:15.745Z,1012.34
2022-08-05T11:00:02.451Z,1012.33
2022-08-05T11:00:19.632Z,1012.39
2022-08-05T11:01:15.193Z,1012.41
2022-08-05T11:02:34.652Z,1012.46
2022-08-05T11:03:25.464Z,1012.50
2022-08-05T11:04:15.278Z,1012.53
2022-08-05T11:05:18.211Z,1012.51
2022-08-05T11:06:17.617Z,1012.51
2022-08-05T11:07:15.369Z,1012.57
2022-08-05T11:08:36.671Z,1012.54
2022-08-05T11:09:16.602Z,1012.56
2022-08-05T11:10:15.456Z,1012.61
2022-08-05T11:11:16.821Z,1012.65
2022-08-05T11:12:15.633Z,1012.64
2022-08-05T11:13:15.544Z,1012.63
2022-08-05T11:14:15.577Z,1012.64
2022-08-05T11:15:19.218Z,1012.73
2022-08-05T11:16:15.635Z,1012.71
2022-08-05T11:17:59.228Z,1012.72
2022-08-05T11:18:16.027Z,1012.72
2022-08-05T11:20:15.756Z,1012.79
2022-08-05T11:20:16.575Z,1012.71
2022-08-05T11:21:15.786Z,1012.82
2022-08-05T11:22:15.817Z,1012.81
2022-08-05T11:23:15.846Z,1012.84
2022-08-05T11:24:30.626Z,1012.91
2022-08-05T11:26:03.604Z,1012.90
2022-08-05T11:26:15.937Z,1012.91
2022-08-05T11:27:16.012Z,1012.83
2022-08-05T11:28:17.135Z,1012.96
2022-08-05T11:29:16.028Z,1012.86
2022-08-05T11:30:16.058Z,1012.97
2022-08-05T11:31:19.648Z,1013.05
2022-08-05T11:32:16.116Z,1013.01
2022-08-05T11:33:21.234Z,1013.10
2022-08-05T11:34:18.995Z,1013.00
2022-08-05T11:35:18.827Z,1012.97
2022-08-05T11:36:16.235Z,1012.91
2022-08-05T11:38:28.525Z,1013.09
2022-08-05T11:38:30.297Z,1012.92
2022-08-05T11:39:16.401Z,1012.95
2022-08-05T11:40:19.596Z,1012.93
2022-08-05T11:41:56.525Z,1012.86
2022-08-05T11:43:19.007Z,1012.81
2022-08-05T11:44:40.780Z,1012.81
2022-08-05T11:46:14.711Z,1012.96
2022-08-05T11:46:32.718Z,1012.91
2022-08-05T11:47:22.006Z,1012.95
2022-08-05T11:48:19.170Z,1012.99
2022-08-05T11:49:19.186Z,1013.12
2022-08-05T11:50:19.218Z,1013.11
2022-08-05T11:51:43.550Z,1013.11
2022-08-05T11:52:19.294Z,1012.90
2022-08-05T11:53:19.310Z,1012.94
2022-08-05T11:54:19.343Z,1012.92
2022-08-05T11:55:19.379Z,1012.95
2022-08-05T11:56:19.402Z,1012.95
2022-08-05T11:57:24.785Z,1012.91
2022-08-05T11:58:19.637Z,1012.98
2022-08-05T11:59:21.312Z,1012.96
2022-08-05T12:00:19.526Z,1012.98
2022-08-05T12:01:19.558Z,1012.88
2022-08-05T12:02:29.936Z,1012.86
2022-08-05T12:03:29.630Z,1013.08
2022-08-05T12:04:19.651Z,1013.06
2022-08-05T12:05:19.681Z,1013.08
2022-08-05T12:06:19.715Z,1012.89
2022-08-05T12:08:03.144Z,1012.90
2022-08-05T12:08:19.776Z,1012.87
2022-08-05T12:09:20.253Z,1013.04
2022-08-05T12:10:19.841Z,1013.10
2022-08-05T12:11:20.247Z,1012.89
2022-08-05T12:12:19.917Z,1012.90
2022-08-05T12:13:47.888Z,1012.87
2022-08-05T12:14:19.966Z,1013.05
2022-08-05T12:15:19.995Z,1012.83
2022-08-05T12:16:20.029Z,1012.84
2022-08-05T12:18:03.885Z,1013.00
2022-08-05T12:18:20.760Z,1013.01
2022-08-05T12:20:26.796Z,1013.00
2022-08-05T12:20:30.658Z,1012.90
2022-08-05T12:21:20.182Z,1012.85
2022-08-05T12:22:20.296Z,1012.98
2022-08-05T12:24:27.860Z,1012.87
2022-08-05T12:25:28.536Z,1012.96
2022-08-05T12:26:27.918Z,1012.93
2022-08-05T12:27:33.090Z,1012.94
2022-08-05T12:28:27.982Z,1013.00
2022-08-05T12:29:28.014Z,1012.85
2022-08-05T12:30:32.061Z,1012.85
2022-08-05T12:31:32.710Z,1012.90
2022-08-05T12:32:28.103Z,1012.95
2022-08-05T12:33:36.456Z,1012.95
2022-08-05T12:34:28.175Z,1013.04
2022-08-05T12:35:37.008Z,1012.87
2022-08-05T12:36:28.320Z,1013.03
2022-08-05T12:37:30.036Z,1013.00
2022-08-05T12:38:31.360Z,1012.92
2022-08-05T12:39:37.315Z,1012.84
2022-08-05T12:40:28.797Z,1012.97
2022-08-05T12:41:34.581Z,1012.96
2022-08-05T12:42:28.417Z,1012.98
2022-08-05T12:43:32.231Z,1013.07
2022-08-05T12:44:33.275Z,1013.12
2022-08-05T12:45:42.444Z,1012.90
2022-08-05T12:46:29.679Z,1013.08
2022-08-05T12:47:30.433Z,1013.14
2022-08-05T12:48:32.585Z,1013.22
2022-08-05T12:49:28.641Z,1013.26
2022-08-05T12:50:30.852Z,1013.17
2022-08-05T12:52:13.746Z,1013.17
2022-08-05T12:52:35.329Z,1013.26
2022-08-05T12:53:37.022Z,1013.15
2022-08-05T12:54:28.793Z,1013.13
2022-08-05T12:55:28.825Z,1013.13
2022-08-05T12:56:35.313Z,1013.16
2022-08-05T12:57:28.889Z,1013.18
2022-08-05T12:58:49.557Z,1013.22
2022-08-05T13:00:08.415Z,1013.27
2022-08-05T13:01:59.784Z,1013.34
2022-08-05T13:02:02.435Z,1013.25
2022-08-05T13:02:30.486Z,1013.23
2022-08-05T13:03:32.480Z,1013.20
2022-08-05T13:04:29.108Z,1013.16
2022-08-05T13:05:37.430Z,1013.22
2022-08-05T13:06:29.172Z,1013.12
2022-08-05T13:07:57.536Z,1013.05
2022-08-05T13:08:29.234Z,1013.08
2022-08-05T13:09:29.263Z,1013.22